sensor_id;sensor_type;location;lat;lon;timestamp;pressure;altitude;pressure_sealevel;temperature;humidity
51958;BME280;41120;51.820;20.804;2022-10-16T00:01:44;99634.13;;;12.33;100.00
51958;BME280;41120;51.820;20.804;2022-10-16T00:04:26;99621.75;;;12.24;100.00
51958;BME280;41120;51.820;20.804;2022-10-16T00:06:56;99631.03;;;12.28;100.00
51958;BME280;41120;51.820;20.804;2022-10-16T00:12:41;99615.47;;;12.15;100.00
51958;BME280;41120;51.820;20.804;2022-10-16T00:15:13;99617.38;;;12.13;100.00
51958;BME280;41120;51.820;20.804;2022-10-16T00:17:56;99624.06;;;12.17;100.00
51958;BME280;41120;51.820;20.804;2022-10-16T00:23:58;99633.66;;;12.28;100.00
51958;BME280;41120;51.820;20.804;2022-10-16T00:26:43;99623.75;;;12.31;100.00
51958;BME280;41120;51.820;20.804;2022-10-16T00:29:31;99629.84;;;12.32;100.00
51958;BME280;41120;51.820;20.804;2022-10-16T00:31:57;99614.00;;;12.22;100.00
51958;BME280;41120;51.820;20.804;2022-10-16T00:34:45;99628.63;;;12.36;100.00
51958;BME280;41120;51.820;20.804;2022-10-16T00:37:45;99630.50;;;12.45;100.00
51958;BME280;41120;51.820;20.804;2022-10-16T00:40:46;99632.41;;;12.43;100.00
51958;BME280;41120;51.820;20.804;2022-10-16T00:43:48;99638.09;;;12.59;100.00
51958;BME280;41120;51.820;20.804;2022-10-16T00:46:46;99641.44;;;12.61;100.00
51958;BME280;41120;51.820;20.804;2022-10-16T00:49:13;99643.78;;;12.64;100.00
51958;BME280;41120;51.820;20.804;2022-10-16T00:51:51;99640.78;;;12.69;100.00
51958;BME280;41120;51.820;20.804;2022-10-16T00:57:42;99632.88;;;12.80;100.00
51958;BME280;41120;51.820;20.804;2022-10-16T01:00:24;99644.53;;;12.88;100.00
51958;BME280;41120;51.820;20.804;2022-10-16T01:02:57;99642.59;;;12.90;100.00
51958;BME280;41120;51.820;20.804;2022-10-16T01:05:38;99640.09;;;12.88;100.00
51958;BME280;41120;51.820;20.804;2022-10-16T01:08:13;99648.44;;;12.93;100.00
51958;BME280;41120;51.820;20.804;2022-10-16T01:10:56;99632.59;;;12.83;100.00
51958;BME280;41120;51.820;20.804;2022-10-16T01:13:32;99631.25;;;12.89;100.00
51958;BME280;41120;51.820;20.804;2022-10-16T01:16:11;99648.88;;;12.98;100.00
51958;BME280;41120;51.820;20.804;2022-10-16T01:19:44;99648.44;;;12.93;100.00
51958;BME280;41120;51.820;20.804;2022-10-16T01:21:59;99644.38;;;12.89;100.00
51958;BME280;41120;51.820;20.804;2022-10-16T01:24:45;99645.34;;;12.88;100.00
51958;BME280;41120;51.820;20.804;2022-10-16T01:27:21;99646.06;;;12.90;100.00
51958;BME280;41120;51.820;20.804;2022-10-16T01:30:21;99660.84;;;12.91;100.00
51958;BME280;41120;51.820;20.804;2022-10-16T01:35:52;99668.03;;;12.89;100.00
51958;BME280;41120;51.820;20.804;2022-10-16T01:38:44;99667.22;;;12.89;100.00
51958;BME280;41120;51.820;20.804;2022-10-16T01:43:53;99668.84;;;12.90;100.00
51958;BME280;41120;51.820;20.804;2022-10-16T01:46:26;99645.56;;;12.75;100.00
51958;BME280;41120;51.820;20.804;2022-10-16T01:48:52;99649.72;;;12.78;100.00
51958;BME280;41120;51.820;20.804;2022-10-16T01:51:52;99654.25;;;12.76;100.00
51958;BME280;41120;51.820;20.804;2022-10-16T01:54:30;99648.66;;;12.69;100.00
51958;BME280;41120;51.820;20.804;2022-10-16T01:57:08;99641.63;;;12.70;100.00
51958;BME280;41120;51.820;20.804;2022-10-16T02:02:51;99631.56;;;12.54;100.00
51958;BME280;41120;51.820;20.804;2022-10-16T02:05:47;99646.69;;;12.61;100.00
51958;BME280;41120;51.820;20.804;2022-10-16T02:12:00;99648.09;;;12.66;100.00
51958;BME280;41120;51.820;20.804;2022-10-16T02:17:44;99640.16;;;12.56;100.00
51958;BME280;41120;51.820;20.804;2022-10-16T02:30:39;99651.06;;;12.40;100.00
51958;BME280;41120;51.820;20.804;2022-10-16T02:32:46;99650.38;;;12.27;100.00
51958;BME280;41120;51.820;20.804;2022-10-16T02:35:15;99664.59;;;12.24;100.00
51958;BME280;41120;51.820;20.804;2022-10-16T02:37:43;99653.28;;;12.12;100.00
51958;BME280;41120;51.820;20.804;2022-10-16T02:40:10;99651.63;;;12.00;100.00
51958;BME280;41120;51.820;20.804;2022-10-16T02:42:39;99663.06;;;11.99;100.00
51958;BME280;41120;51.820;20.804;2022-10-16T02:45:07;99670.22;;;11.97;100.00
51958;BME280;41120;51.820;20.804;2022-10-16T02:48:00;99674.06;;;11.93;100.00
51958;BME280;41120;51.820;20.804;2022-10-16T02:50:59;99667.25;;;11.79;100.00
51958;BME280;41120;51.820;20.804;2022-10-16T02:53:37;99657.13;;;11.52;100.00
51958;BME280;41120;51.820;20.804;2022-10-16T02:59:42;99671.41;;;11.59;100.00
51958;BME280;41120;51.820;20.804;2022-10-16T03:02:29;99676.66;;;11.59;100.00
51958;BME280;41120;51.820;20.804;2022-10-16T03:05:24;99681.06;;;11.59;100.00
51958;BME280;41120;51.820;20.804;2022-10-16T03:07:50;99680.22;;;11.58;100.00
51958;BME280;41120;51.820;20.804;2022-10-16T03:10:51;99683.56;;;11.60;100.00
51958;BME280;41120;51.820;20.804;2022-10-16T03:13:32;99679.16;;;11.61;100.00
51958;BME280;41120;51.820;20.804;2022-10-16T03:16:13;99673.78;;;11.51;100.00
51958;BME280;41120;51.820;20.804;2022-10-16T03:19:01;99690.72;;;11.58;100.00
51958;BME280;41120;51.820;20.804;2022-10-16T03:21:43;99689.16;;;11.55;100.00
51958;BME280;41120;51.820;20.804;2022-10-16T03:24:21;99697.16;;;11.54;100.00
51958;BME280;41120;51.820;20.804;2022-10-16T03:27:00;99700.59;;;11.54;100.00
51958;BME280;41120;51.820;20.804;2022-10-16T03:33:00;99691.78;;;11.44;100.00
51958;BME280;41120;51.820;20.804;2022-10-16T03:35:33;99682.25;;;11.32;100.00
51958;BME280;41120;51.820;20.804;2022-10-16T03:38:13;99705.69;;;11.22;100.00
51958;BME280;41120;51.820;20.804;2022-10-16T03:40:40;99688.22;;;10.99;100.00
51958;BME280;41120;51.820;20.804;2022-10-16T03:46:32;99713.34;;;10.66;100.00
51958;BME280;41120;51.820;20.804;2022-10-16T03:48:58;99705.97;;;10.47;100.00
51958;BME280;41120;51.820;20.804;2022-10-16T03:52:00;99707.28;;;10.28;100.00
51958;BME280;41120;51.820;20.804;2022-10-16T04:00:21;99711.31;;;10.08;100.00
51958;BME280;41120;51.820;20.804;2022-10-16T04:02:50;99707.16;;;9.93;100.00
51958;BME280;41120;51.820;20.804;2022-10-16T04:05:24;99718.69;;;9.78;100.00
51958;BME280;41120;51.820;20.804;2022-10-16T04:07:50;99708.44;;;9.62;100.00
51958;BME280;41120;51.820;20.804;2022-10-16T04:13:52;99712.31;;;9.56;100.00
51958;BME280;41120;51.820;20.804;2022-10-16T04:19:52;99713.34;;;9.67;100.00
51958;BME280;41120;51.820;20.804;2022-10-16T04:22:37;99713.34;;;9.79;100.00
51958;BME280;41120;51.820;20.804;2022-10-16T04:25:06;99714.06;;;9.81;100.00
51958;BME280;41120;51.820;20.804;2022-10-16T04:31:05;99731.09;;;9.87;100.00
51958;BME280;41120;51.820;20.804;2022-10-16T04:36:30;99724.63;;;9.67;100.00
51958;BME280;41120;51.820;20.804;2022-10-16T04:39:01;99727.69;;;9.61;100.00
51958;BME280;41120;51.820;20.804;2022-10-16T04:41:55;99728.00;;;9.69;100.00
51958;BME280;41120;51.820;20.804;2022-10-16T04:44:33;99707.19;;;9.55;100.00
51958;BME280;41120;51.820;20.804;2022-10-16T04:47:11;99724.03;;;9.63;100.00
51958;BME280;41120;51.820;20.804;2022-10-16T04:49:36;99728.31;;;9.64;100.00
51958;BME280;41120;51.820;20.804;2022-10-16T04:52:03;99729.03;;;9.67;100.00
51958;BME280;41120;51.820;20.804;2022-10-16T04:54:42;99732.56;;;9.65;100.00
51958;BME280;41120;51.820;20.804;2022-10-16T04:57:12;99736.56;;;9.71;100.00
51958;BME280;41120;51.820;20.804;2022-10-16T04:59:44;99733.75;;;9.61;100.00
51958;BME280;41120;51.820;20.804;2022-10-16T05:02:12;99732.56;;;9.53;100.00
51958;BME280;41120;51.820;20.804;2022-10-16T05:04:42;99724.66;;;9.41;100.00
51958;BME280;41120;51.820;20.804;2022-10-16T05:07:23;99740.03;;;9.46;100.00
51958;BME280;41120;51.820;20.804;2022-10-16T05:10:01;99741.59;;;9.61;100.00
51958;BME280;41120;51.820;20.804;2022-10-16T05:12:35;99755.47;;;9.75;100.00
51958;BME280;41120;51.820;20.804;2022-10-16T05:15:03;99750.13;;;9.89;100.00
51958;BME280;41120;51.820;20.804;2022-10-16T05:17:32;99758.78;;;10.15;100.00
51958;BME280;41120;51.820;20.804;2022-10-16T05:20:03;99745.72;;;10.28;100.00
51958;BME280;41120;51.820;20.804;2022-10-16T05:22:54;99757.78;;;10.55;100.00
51958;BME280;41120;51.820;20.804;2022-10-16T05:25:33;99749.13;;;10.65;100.00
51958;BME280;41120;51.820;20.804;2022-10-16T05:28:02;99750.03;;;10.77;100.00
51958;BME280;41120;51.820;20.804;2022-10-16T05:30:36;99765.03;;;10.99;100.00
51958;BME280;41120;51.820;20.804;2022-10-16T05:33:25;99765.22;;;11.20;100.00
51958;BME280;41120;51.820;20.804;2022-10-16T05:35:53;99745.47;;;11.27;100.00
51958;BME280;41120;51.820;20.804;2022-10-16T05:38:53;99761.50;;;11.47;100.00
51958;BME280;41120;51.820;20.804;2022-10-16T05:47:29;99756.63;;;11.65;100.00
51958;BME280;41120;51.820;20.804;2022-10-16T05:49:55;99774.22;;;11.87;100.00
51958;BME280;41120;51.820;20.804;2022-10-16T05:52:58;99773.88;;;12.03;100.00
51958;BME280;41120;51.820;20.804;2022-10-16T05:55:23;99775.72;;;12.46;100.00
51958;BME280;41120;51.820;20.804;2022-10-16T05:57:57;99780.44;;;13.18;100.00
51958;BME280;41120;51.820;20.804;2022-10-16T06:03:52;99786.50;;;13.93;100.00
51958;BME280;41120;51.820;20.804;2022-10-16T06:06:27;99782.91;;;13.73;100.00
51958;BME280;41120;51.820;20.804;2022-10-16T06:08:55;99774.81;;;13.43;100.00
51958;BME280;41120;51.820;20.804;2022-10-16T06:11:26;99785.31;;;13.22;100.00
51958;BME280;41120;51.820;20.804;2022-10-16T06:13:58;99772.34;;;13.10;100.00
51958;BME280;41120;51.820;20.804;2022-10-16T06:16:56;99793.13;;;13.45;100.00
51958;BME280;41120;51.820;20.804;2022-10-16T06:19:24;99783.19;;;13.48;100.00
51958;BME280;41120;51.820;20.804;2022-10-16T06:22:03;99813.38;;;13.75;100.00
51958;BME280;41120;51.820;20.804;2022-10-16T06:24:44;99816.63;;;14.09;100.00
51958;BME280;41120;51.820;20.804;2022-10-16T06:27:11;99818.63;;;14.17;100.00
51958;BME280;41120;51.820;20.804;2022-10-16T06:30:03;99820.44;;;14.26;100.00
51958;BME280;41120;51.820;20.804;2022-10-16T06:32:55;99823.34;;;14.54;100.00
51958;BME280;41120;51.820;20.804;2022-10-16T06:38:54;99828.00;;;14.91;100.00
51958;BME280;41120;51.820;20.804;2022-10-16T06:41:34;99831.34;;;14.93;100.00
51958;BME280;41120;51.820;20.804;2022-10-16T06:44:05;99835.94;;;15.10;100.00
51958;BME280;41120;51.820;20.804;2022-10-16T06:46:32;99829.16;;;15.08;100.00
51958;BME280;41120;51.820;20.804;2022-10-16T06:48:58;99836.91;;;15.09;100.00
51958;BME280;41120;51.820;20.804;2022-10-16T06:51:25;99844.41;;;15.14;100.00
51958;BME280;41120;51.820;20.804;2022-10-16T06:54:27;99849.34;;;14.68;100.00
51958;BME280;41120;51.820;20.804;2022-10-16T06:56:54;99849.03;;;14.41;100.00
51958;BME280;41120;51.820;20.804;2022-10-16T06:59:55;99852.41;;;14.12;100.00
51958;BME280;41120;51.820;20.804;2022-10-16T07:02:21;99846.16;;;13.92;100.00
51958;BME280;41120;51.820;20.804;2022-10-16T07:04:57;99834.44;;;13.75;100.00
51958;BME280;41120;51.820;20.804;2022-10-16T07:07:31;99853.31;;;13.80;100.00
51958;BME280;41120;51.820;20.804;2022-10-16T07:09:57;99837.78;;;13.77;100.00
51958;BME280;41120;51.820;20.804;2022-10-16T07:12:26;99838.16;;;13.52;100.00
51958;BME280;41120;51.820;20.804;2022-10-16T07:14:53;99821.16;;;13.35;100.00
51958;BME280;41120;51.820;20.804;2022-10-16T07:17:29;99839.69;;;13.22;100.00
51958;BME280;41120;51.820;20.804;2022-10-16T07:19:57;99849.94;;;13.25;100.00
51958;BME280;41120;51.820;20.804;2022-10-16T07:22:36;99850.31;;;13.20;100.00
51958;BME280;41120;51.820;20.804;2022-10-16T07:25:15;99839.81;;;13.20;100.00
51958;BME280;41120;51.820;20.804;2022-10-16T07:27:45;99838.00;;;13.32;100.00
51958;BME280;41120;51.820;20.804;2022-10-16T07:30:11;99839.41;;;13.36;100.00
51958;BME280;41120;51.820;20.804;2022-10-16T07:32:37;99843.59;;;13.60;100.00
51958;BME280;41120;51.820;20.804;2022-10-16T07:35:07;99869.19;;;13.90;100.00
51958;BME280;41120;51.820;20.804;2022-10-16T07:37:35;99859.78;;;13.97;100.00
51958;BME280;41120;51.820;20.804;2022-10-16T07:40:03;99866.13;;;13.95;100.00
51958;BME280;41120;51.820;20.804;2022-10-16T07:42:38;99883.28;;;14.41;100.00
51958;BME280;41120;51.820;20.804;2022-10-16T07:45:05;99873.94;;;14.88;100.00
51958;BME280;41120;51.820;20.804;2022-10-16T07:47:46;99869.44;;;15.29;100.00
51958;BME280;41120;51.820;20.804;2022-10-16T07:50:26;99878.00;;;15.41;100.00
51958;BME280;41120;51.820;20.804;2022-10-16T07:52:59;99870.25;;;15.69;100.00
51958;BME280;41120;51.820;20.804;2022-10-16T07:55:32;99867.44;;;15.99;100.00
51958;BME280;41120;51.820;20.804;2022-10-16T07:58:05;99871.34;;;16.05;100.00
51958;BME280;41120;51.820;20.804;2022-10-16T08:01:06;99875.91;;;16.13;100.00
51958;BME280;41120;51.820;20.804;2022-10-16T08:07:01;99873.47;;;16.39;100.00
51958;BME280;41120;51.820;20.804;2022-10-16T08:09:29;99847.19;;;16.37;100.00
51958;BME280;41120;51.820;20.804;2022-10-16T08:15:07;99872.28;;;16.88;100.00
51958;BME280;41120;51.820;20.804;2022-10-16T08:17:59;99893.47;;;17.06;100.00
51958;BME280;41120;51.820;20.804;2022-10-16T08:23:39;99889.34;;;17.40;100.00
51958;BME280;41120;51.820;20.804;2022-10-16T08:26:11;99885.88;;;17.39;100.00
51958;BME280;41120;51.820;20.804;2022-10-16T08:28:41;99872.56;;;17.49;100.00
51958;BME280;41120;51.820;20.804;2022-10-16T08:31:14;99891.63;;;17.70;99.95
51958;BME280;41120;51.820;20.804;2022-10-16T08:33:47;99879.97;;;17.63;98.69
51958;BME280;41120;51.820;20.804;2022-10-16T08:36:14;99890.25;;;18.02;99.48
51958;BME280;41120;51.820;20.804;2022-10-16T08:38:41;99877.28;;;17.99;96.46
51958;BME280;41120;51.820;20.804;2022-10-16T08:44:16;99894.47;;;17.77;97.38
51958;BME280;41120;51.820;20.804;2022-10-16T08:50:14;99890.00;;;17.77;98.86
51958;BME280;41120;51.820;20.804;2022-10-16T08:52:44;99893.94;;;17.91;98.05
51958;BME280;41120;51.820;20.804;2022-10-16T08:59:01;99910.59;;;18.28;97.08
51958;BME280;41120;51.820;20.804;2022-10-16T09:01:41;99900.22;;;18.34;94.19
51958;BME280;41120;51.820;20.804;2022-10-16T09:17:04;99919.66;;;18.17;95.13
51958;BME280;41120;51.820;20.804;2022-10-16T09:22:38;99911.22;;;17.95;95.61
51958;BME280;41120;51.820;20.804;2022-10-16T09:25:14;99915.50;;;18.14;96.39
51958;BME280;41120;51.820;20.804;2022-10-16T09:31:15;99888.91;;;18.58;94.66
51958;BME280;41120;51.820;20.804;2022-10-16T09:33:58;99902.34;;;18.65;93.27
51958;BME280;41120;51.820;20.804;2022-10-16T09:36:27;99891.44;;;18.68;92.74
51958;BME280;41120;51.820;20.804;2022-10-16T09:39:05;99899.81;;;18.55;93.44
51958;BME280;41120;51.820;20.804;2022-10-16T09:41:34;99894.16;;;18.85;94.10
51958;BME280;41120;51.820;20.804;2022-10-16T09:44:02;99902.78;;;18.87;93.15
51958;BME280;41120;51.820;20.804;2022-10-16T09:46:34;99890.47;;;18.77;92.25
51958;BME280;41120;51.820;20.804;2022-10-16T09:49:04;99900.66;;;18.90;93.52
51958;BME280;41120;51.820;20.804;2022-10-16T09:51:35;99910.50;;;18.72;90.90
51958;BME280;41120;51.820;20.804;2022-10-16T09:56:35;99912.34;;;18.45;92.37
51958;BME280;41120;51.820;20.804;2022-10-16T09:59:15;99911.06;;;18.49;93.42
51958;BME280;41120;51.820;20.804;2022-10-16T10:01:45;99910.28;;;18.65;92.06
51958;BME280;41120;51.820;20.804;2022-10-16T10:04:12;99911.41;;;18.80;91.65
51958;BME280;41120;51.820;20.804;2022-10-16T10:10:42;99917.75;;;18.88;92.20
51958;BME280;41120;51.820;20.804;2022-10-16T10:16:39;99898.34;;;18.61;96.12
51958;BME280;41120;51.820;20.804;2022-10-16T10:22:50;99915.91;;;18.62;90.95
51958;BME280;41120;51.820;20.804;2022-10-16T10:28:25;99917.78;;;18.70;92.14
51958;BME280;41120;51.820;20.804;2022-10-16T10:31:17;99903.22;;;18.74;93.58
51958;BME280;41120;51.820;20.804;2022-10-16T10:43:43;99897.47;;;18.52;94.21
51958;BME280;41120;51.820;20.804;2022-10-16T10:46:48;99910.81;;;18.69;94.95
51958;BME280;41120;51.820;20.804;2022-10-16T11:07:38;99893.56;;;18.99;94.05
51958;BME280;41120;51.820;20.804;2022-10-16T11:13:46;99890.56;;;18.94;92.84
51958;BME280;41120;51.820;20.804;2022-10-16T11:16:56;99905.66;;;18.93;90.42
51958;BME280;41120;51.820;20.804;2022-10-16T11:23:10;99904.28;;;18.81;93.10
51958;BME280;41120;51.820;20.804;2022-10-16T11:25:57;99900.63;;;18.82;92.15
51958;BME280;41120;51.820;20.804;2022-10-16T11:32:06;99907.38;;;19.19;92.78
51958;BME280;41120;51.820;20.804;2022-10-16T11:34:52;99912.03;;;19.25;90.08
51958;BME280;41120;51.820;20.804;2022-10-16T11:40:42;99893.28;;;19.18;91.26
51958;BME280;41120;51.820;20.804;2022-10-16T11:46:48;99909.38;;;19.25;90.95
51958;BME280;41120;51.820;20.804;2022-10-16T11:49:19;99901.91;;;19.12;91.52
51958;BME280;41120;51.820;20.804;2022-10-16T12:07:54;99893.41;;;19.00;95.30
51958;BME280;41120;51.820;20.804;2022-10-16T12:16:59;99890.53;;;18.86;97.17
51958;BME280;41120;51.820;20.804;2022-10-16T12:19:28;99880.72;;;18.78;95.37
51958;BME280;41120;51.820;20.804;2022-10-16T12:22:00;99891.25;;;18.70;95.92
51958;BME280;41120;51.820;20.804;2022-10-16T12:24:35;99896.06;;;18.66;95.93
51958;BME280;41120;51.820;20.804;2022-10-16T12:27:05;99880.59;;;18.53;96.30
51958;BME280;41120;51.820;20.804;2022-10-16T12:29:41;99862.16;;;18.44;98.09
51958;BME280;41120;51.820;20.804;2022-10-16T12:35:02;99882.59;;;18.59;100.00
51958;BME280;41120;51.820;20.804;2022-10-16T12:37:44;99885.59;;;18.65;97.29
51958;BME280;41120;51.820;20.804;2022-10-16T12:40:23;99896.56;;;18.70;98.56
51958;BME280;41120;51.820;20.804;2022-10-16T12:43:13;99891.50;;;18.50;97.59
51958;BME280;41120;51.820;20.804;2022-10-16T12:46:33;99898.69;;;18.32;97.71
51958;BME280;41120;51.820;20.804;2022-10-16T12:48:52;99894.34;;;18.23;100.00
51958;BME280;41120;51.820;20.804;2022-10-16T13:03:27;99913.31;;;18.10;100.00
51958;BME280;41120;51.820;20.804;2022-10-16T13:15:28;99898.91;;;18.12;99.68
51958;BME280;41120;51.820;20.804;2022-10-16T13:18:22;99907.59;;;18.23;98.94
51958;BME280;41120;51.820;20.804;2022-10-16T13:30:53;99913.00;;;18.13;100.00
51958;BME280;41120;51.820;20.804;2022-10-16T13:33:39;99921.25;;;18.10;100.00
51958;BME280;41120;51.820;20.804;2022-10-16T13:36:26;99916.03;;;18.00;100.00
51958;BME280;41120;51.820;20.804;2022-10-16T13:42:25;99929.03;;;18.11;100.00
51958;BME280;41120;51.820;20.804;2022-10-16T13:44:53;99915.06;;;18.01;100.00
51958;BME280;41120;51.820;20.804;2022-10-16T13:47:41;99930.06;;;18.18;100.00
51958;BME280;41120;51.820;20.804;2022-10-16T13:50:14;99925.59;;;18.19;100.00
51958;BME280;41120;51.820;20.804;2022-10-16T13:55:37;99918.16;;;18.14;100.00
51958;BME280;41120;51.820;20.804;2022-10-16T13:58:13;99921.31;;;18.18;100.00
51958;BME280;41120;51.820;20.804;2022-10-16T14:00:58;99917.16;;;18.15;100.00
51958;BME280;41120;51.820;20.804;2022-10-16T14:03:39;99917.78;;;18.09;100.00
51958;BME280;41120;51.820;20.804;2022-10-16T14:09:40;99923.91;;;18.10;100.00
51958;BME280;41120;51.820;20.804;2022-10-16T14:12:32;99924.88;;;18.09;100.00
51958;BME280;41120;51.820;20.804;2022-10-16T14:15:00;99913.22;;;18.02;100.00
51958;BME280;41120;51.820;20.804;2022-10-16T14:17:43;99921.41;;;18.08;100.00
51958;BME280;41120;51.820;20.804;2022-10-16T14:20:14;99920.56;;;18.08;100.00
51958;BME280;41120;51.820;20.804;2022-10-16T14:23:04;99928.38;;;18.09;100.00
51958;BME280;41120;51.820;20.804;2022-10-16T14:25:53;99935.00;;;18.13;100.00
51958;BME280;41120;51.820;20.804;2022-10-16T14:28:26;99913.59;;;18.07;100.00
51958;BME280;41120;51.820;20.804;2022-10-16T14:34:22;99940.94;;;18.33;100.00
51958;BME280;41120;51.820;20.804;2022-10-16T14:37:16;99947.50;;;18.47;100.00
51958;BME280;41120;51.820;20.804;2022-10-16T14:40:14;99946.34;;;18.50;100.00
51958;BME280;41120;51.820;20.804;2022-10-16T14:42:43;99947.34;;;18.49;100.00
51958;BME280;41120;51.820;20.804;2022-10-16T14:45:11;99947.75;;;18.36;100.00
51958;BME280;41120;51.820;20.804;2022-10-16T14:47:55;99953.31;;;18.25;100.00
51958;BME280;41120;51.820;20.804;2022-10-16T14:50:56;99947.53;;;18.03;100.00
51958;BME280;41120;51.820;20.804;2022-10-16T14:57:22;99938.81;;;17.57;100.00
51958;BME280;41120;51.820;20.804;2022-10-16T14:59:53;99935.53;;;17.27;100.00
51958;BME280;41120;51.820;20.804;2022-10-16T15:08:43;99924.91;;;16.44;100.00
51958;BME280;41120;51.820;20.804;2022-10-16T15:11:18;99940.88;;;16.43;100.00
51958;BME280;41120;51.820;20.804;2022-10-16T15:14:03;99952.75;;;16.29;100.00
51958;BME280;41120;51.820;20.804;2022-10-16T15:20:12;99964.88;;;16.22;100.00
51958;BME280;41120;51.820;20.804;2022-10-16T15:23:16;99965.56;;;16.14;100.00
51958;BME280;41120;51.820;20.804;2022-10-16T15:32:10;99960.16;;;15.96;100.00
51958;BME280;41120;51.820;20.804;2022-10-16T15:34:36;99945.84;;;15.89;100.00
51958;BME280;41120;51.820;20.804;2022-10-16T15:37:15;99946.41;;;15.83;100.00
51958;BME280;41120;51.820;20.804;2022-10-16T15:39:42;99972.66;;;15.84;100.00
51958;BME280;41120;51.820;20.804;2022-10-16T15:42:14;99972.81;;;15.73;100.00
51958;BME280;41120;51.820;20.804;2022-10-16T15:44:56;99982.53;;;15.73;100.00
51958;BME280;41120;51.820;20.804;2022-10-16T15:47:24;99981.56;;;15.74;100.00
51958;BME280;41120;51.820;20.804;2022-10-16T15:49:50;99977.06;;;15.65;100.00
51958;BME280;41120;51.820;20.804;2022-10-16T15:52:49;99991.66;;;15.69;100.00
51958;BME280;41120;51.820;20.804;2022-10-16T15:55:37;99990.47;;;15.73;100.00
51958;BME280;41120;51.820;20.804;2022-10-16T15:58:11;99998.78;;;15.78;100.00
51958;BME280;41120;51.820;20.804;2022-10-16T16:00:43;99985.56;;;15.68;100.00
51958;BME280;41120;51.820;20.804;2022-10-16T16:03:11;100002.25;;;15.78;100.00
51958;BME280;41120;51.820;20.804;2022-10-16T16:05:40;99997.78;;;15.69;100.00
51958;BME280;41120;51.820;20.804;2022-10-16T16:08:06;99991.78;;;15.57;100.00
51958;BME280;41120;51.820;20.804;2022-10-16T16:10:33;100004.56;;;15.62;100.00
51958;BME280;41120;51.820;20.804;2022-10-16T16:13:00;100000.94;;;15.53;100.00
51958;BME280;41120;51.820;20.804;2022-10-16T16:15:26;100003.84;;;15.50;100.00
51958;BME280;41120;51.820;20.804;2022-10-16T16:17:52;100001.06;;;15.42;100.00
51958;BME280;41120;51.820;20.804;2022-10-16T16:20:18;99999.66;;;15.38;100.00
51958;BME280;41120;51.820;20.804;2022-10-16T16:22:44;99998.28;;;15.34;100.00
51958;BME280;41120;51.820;20.804;2022-10-16T16:25:11;100003.78;;;15.31;100.00
51958;BME280;41120;51.820;20.804;2022-10-16T16:27:38;100016.88;;;15.32;100.00
51958;BME280;41120;51.820;20.804;2022-10-16T16:30:06;100027.16;;;15.45;100.00
51958;BME280;41120;51.820;20.804;2022-10-16T16:32:34;100022.69;;;15.36;100.00
51958;BME280;41120;51.820;20.804;2022-10-16T16:35:00;100026.59;;;15.32;100.00
51958;BME280;41120;51.820;20.804;2022-10-16T16:37:28;100017.09;;;15.19;100.00
51958;BME280;41120;51.820;20.804;2022-10-16T16:39:54;100037.22;;;15.20;100.00
51958;BME280;41120;51.820;20.804;2022-10-16T16:42:21;100030.97;;;15.12;100.00
51958;BME280;41120;51.820;20.804;2022-10-16T16:44:47;100034.16;;;15.15;100.00
51958;BME280;41120;51.820;20.804;2022-10-16T16:47:16;100020.81;;;15.07;100.00
51958;BME280;41120;51.820;20.804;2022-10-16T16:49:42;100025.66;;;15.02;100.00
51958;BME280;41120;51.820;20.804;2022-10-16T16:52:08;100025.38;;;15.05;100.00
51958;BME280;41120;51.820;20.804;2022-10-16T16:54:34;100041.25;;;15.15;100.00
51958;BME280;41120;51.820;20.804;2022-10-16T16:57:07;100049.00;;;15.16;100.00
51958;BME280;41120;51.820;20.804;2022-10-16T16:59:44;100048.03;;;15.17;100.00
51958;BME280;41120;51.820;20.804;2022-10-16T17:02:10;100044.16;;;15.12;100.00
51958;BME280;41120;51.820;20.804;2022-10-16T17:04:37;100047.41;;;15.35;100.00
51958;BME280;41120;51.820;20.804;2022-10-16T17:11:00;100064.41;;;15.52;100.00
51958;BME280;41120;51.820;20.804;2022-10-16T17:13:35;100055.81;;;15.59;100.00
51958;BME280;41120;51.820;20.804;2022-10-16T17:16:18;100061.38;;;15.56;100.00
51958;BME280;41120;51.820;20.804;2022-10-16T17:18:46;100052.31;;;15.49;100.00
51958;BME280;41120;51.820;20.804;2022-10-16T17:21:17;100062.44;;;15.44;100.00
51958;BME280;41120;51.820;20.804;2022-10-16T17:27:18;100063.91;;;15.27;100.00
51958;BME280;41120;51.820;20.804;2022-10-16T17:32:50;100077.94;;;15.28;100.00
51958;BME280;41120;51.820;20.804;2022-10-16T17:38:36;100087.28;;;15.11;100.00
51958;BME280;41120;51.820;20.804;2022-10-16T17:44:07;100083.28;;;14.86;100.00
51958;BME280;41120;51.820;20.804;2022-10-16T17:46:49;100098.81;;;14.89;100.00
51958;BME280;41120;51.820;20.804;2022-10-16T17:49:15;100088.53;;;14.65;100.00
51958;BME280;41120;51.820;20.804;2022-10-16T17:51:51;100111.41;;;14.64;100.00
51958;BME280;41120;51.820;20.804;2022-10-16T17:54:18;100117.44;;;14.55;100.00
51958;BME280;41120;51.820;20.804;2022-10-16T17:56:56;100120.13;;;14.44;100.00
51958;BME280;41120;51.820;20.804;2022-10-16T17:59:33;100121.31;;;14.40;100.00
51958;BME280;41120;51.820;20.804;2022-10-16T18:02:06;100118.50;;;14.31;100.00
51958;BME280;41120;51.820;20.804;2022-10-16T18:04:49;100110.63;;;14.20;100.00
51958;BME280;41120;51.820;20.804;2022-10-16T18:07:17;100105.88;;;14.03;100.00
51958;BME280;41120;51.820;20.804;2022-10-16T18:10:07;100123.94;;;14.07;100.00
51958;BME280;41120;51.820;20.804;2022-10-16T18:12:47;100120.59;;;14.05;100.00